Latest Coastal Weather Observations for Willis Island

IDQ60701

Issued at 2:31 am EST Wednesday 26 April 2017 (issued every 10 minutes, with the page automatically refreshed every 10 minutes)

About coastal observations | Map of coastal stations | Coastal observations for QLD | Marine services | Other Formats
Station Details ID: 200283 Name: WILLIS ISLAND Lat: -16.29 Lon: 149.97 Height: 9.29 m
Data from the previous 72 hours. | See also: Recent months at Willis Island
Date/Time
EST
Temp
°C
Wind Pressure Rain since
9am
mm
Weather Cloud Vis
km
Sea
Height
m
Swell
Dir  Spd
kts
Gust
kts
hPa Trend Height
m
Period
s
Dir
26/02:30am 25.6 SE 11 14 1012.4 - 0.0 - - - - - - -
26/02:00am 25.7 SE 11 14 1012.7 - 0.0 - - - - - - -
26/01:30am 25.8 ESE 12 15 1013.1 - 0.0 - - - - - - -
26/01:00am 25.9 ESE 13 15 1013.4 - 0.0 - - - - - - -
26/12:30am 25.9 ESE 13 15 1013.5 - 0.0 - - - - - - -
26/12:00am 25.9 SE 13 16 1013.6 F 0.0 - - - - - - -
 
Date/Time
EST
Temp
°C
Wind Pressure Rain since
9am
mm
Weather Cloud Vis
km
Sea
Height
m
Swell
Dir  Spd
kts
Gust
kts
hPa Trend Height
m
Period
s
Dir
25/11:30pm 26.1 SE 13 16 1013.9 - 0.0 - - - - - - -
25/11:00pm 26.0 SE 14 16 1014.2 - 0.0 - - - - - - -
25/10:30pm 26.1 SE 13 16 1014.3 - 0.0 - - - - - - -
25/10:00pm 26.2 SE 13 17 1014.4 - 0.0 - - - - - - -
25/09:30pm 26.3 SE 14 17 1014.5 - 0.0 - - - - - - -
25/09:00pm 26.2 SE 13 16 1014.6 R 0.0 - - - - - - -
25/08:30pm 26.3 SE 14 17 1014.4 - 0.0 - - - - - - -
25/08:00pm 26.4 SE 14 16 1014.3 - 0.0 - - - - - - -
25/07:30pm 26.3 SE 14 17 1013.8 - 0.0 - - - - - - -
25/07:00pm 26.4 SE 15 18 1013.3 - 0.0 - - - - - - -
25/06:30pm 26.4 SE 15 18 1013.0 - 0.0 - - - - - - -
25/06:00pm 26.5 SE 15 18 1012.7 F 0.0 Fine Partly cloudy 30 1 0.5 8 E
25/05:30pm 26.6 SE 14 17 1012.4 - 0.0 - - - - - - -
25/05:00pm 27.0 SE 15 17 1012.3 - 0.0 - - - - - - -
25/04:30pm 27.4 SE 14 17 1012.1 - 0.0 - - - - - - -
25/04:00pm 27.8 SE 14 16 1012.0 - 0.0 - - - - - - -
25/03:30pm 28.1 SE 13 16 1011.9 - 0.0 - - - - - - -
25/03:00pm 28.4 SE 14 16 1011.8 R 0.0 Fine Mostly cloudy 30 2 0.5 8 E
25/02:30pm 28.7 SE 14 17 1011.9 - 0.0 - - - - - - -
25/02:00pm 28.7 SE 14 17 1012.0 - 0.0 - - - - - - -
25/01:30pm 28.9 SE 14 17 1012.2 - 0.0 - - - - - - -
25/01:00pm 29.0 SE 14 18 1012.4 - 0.0 - - - - - - -
25/12:30pm 29.3 SE 14 17 1012.8 - 0.0 - - - - - - -
25/12:00pm 29.2 ESE 14 17 1013.2 F 0.0 Fine Partly cloudy 30 2 0.6 7 E
25/11:30am 29.1 ESE 15 17 1013.7 - 0.0 - - - - - - -
25/11:00am 28.9 SE 15 18 1014.2 - 0.0 - - - - - - -
25/10:30am 28.8 ESE 15 18 1014.6 - 0.0 - - - - - - -
25/10:00am 28.4 ESE 16 19 1015.0 - 0.0 - - - - - - -
25/09:30am 28.6 SE 16 19 1015.2 - 0.0 - - - - - - -
25/09:00am 28.3 SE 17 19 1015.1 R 0.0 Distant precip. Partly cloudy 30 2 0.5 6 E
25/08:30am 27.8 SE 17 19 1014.9 - 0.0 - - - - - - -
25/08:00am 27.2 SE 18 21 1014.6 - 0.0 - - - - - - -
25/07:30am 27.5 ESE 19 23 1014.4 - 0.0 - - - - - - -
25/07:00am 27.0 ESE 19 21 1014.1 - 0.0 - - - - - - -
25/06:30am 26.6 ESE 19 21 1013.7 - 0.0 - - - - - - -
25/06:00am 26.6 ESE 17 20 1013.3 R 0.0 - - - - - - -
25/05:30am 26.4 ESE 18 21 1012.8 - 0.0 - - - - - - -
25/05:00am 26.6 ESE 18 20 1012.6 - 0.0 - - - - - - -
25/04:30am 26.7 ESE 18 21 1012.5 - 0.0 - - - - - - -
25/04:00am 26.5 ESE 18 21 1012.2 - 0.0 - - - - - - -
25/03:30am 26.3 ESE 18 22 1012.2 - 0.0 - - - - - - -
25/03:00am 26.3 ESE 18 20 1012.3 R 0.0 - - - - - - -
25/02:30am 26.3 ESE 18 20 1012.3 - 0.0 - - - - - - -
25/02:00am 26.3 ESE 17 20 1012.7 - 0.0 - - - - - - -
25/01:30am 26.4 SE 16 19 1013.1 - 0.0 - - - - - - -
25/01:00am 26.3 ESE 17 20 1013.3 - 0.0 - - - - - - -
25/12:30am 26.4 SE 18 21 1013.5 - 0.0 - - - - - - -
25/12:00am 26.4 ESE 20 23 1013.8 F 0.0 - - - - - - -
 
Date/Time
EST
Temp
°C
Wind Pressure Rain since
9am
mm
Weather Cloud Vis
km
Sea
Height
m
Swell
Dir  Spd
kts
Gust
kts
hPa Trend Height
m
Period
s
Dir
24/11:30pm 26.6 ESE 21 23 1013.9 - 0.0 - - - - - - -
24/11:00pm 26.6 ESE 17 21 1014.2 - 0.0 - - - - - - -
24/10:30pm 26.7 ESE 18 21 1014.3 - 0.0 - - - - - - -
24/10:00pm 26.8 ESE 18 21 1014.4 - 0.0 - - - - - - -
24/09:30pm 26.8 SE 18 20 1014.6 - 0.0 - - - - - - -
24/09:00pm 26.8 ESE 17 20 1014.9 F 0.0 - - - - - - -
24/08:30pm 26.9 SE 17 20 1015.0 - 0.0 - - - - - - -
24/08:00pm 26.8 ESE 15 18 1014.8 - 0.0 - - - - - - -
24/07:30pm 26.9 SE 15 17 1014.5 - 0.0 - - - - - - -
24/07:00pm 26.8 ESE 14 17 1014.2 - 0.0 - - - - - - -
24/06:30pm 26.8 ESE 14 17 1013.8 - 0.0 - - - - - - -
24/06:00pm 26.9 ESE 15 18 1013.5 R 0.0 Fine Mostly cloudy 30 2 0.5 8 E
24/05:30pm 27.0 ESE 15 17 1013.2 - 0.0 - - - - - - -
24/05:00pm 27.4 ESE 15 17 1012.9 - 0.0 - - - - - - -
24/04:30pm 27.7 ESE 16 18 1012.7 - 0.0 - - - - - - -
24/04:00pm 28.0 ESE 15 17 1012.3 - 0.0 - - - - - - -
24/03:30pm 28.3 ESE 15 17 1012.2 - 0.0 - - - - - - -
24/03:00pm 28.5 ESE 16 19 1012.3 R 0.0 Fine Mostly cloudy 30 2 0.5 9 E
24/02:30pm 28.7 ESE 16 19 1012.4 - 0.0 - - - - - - -
24/02:00pm 29.1 ESE 15 18 1012.6 - 0.0 - - - - - - -
24/01:30pm 29.0 ESE 17 19 1012.8 - 0.0 - - - - - - -
24/01:00pm 28.2 ESE 15 17 1013.2 - 0.0 - - - - - - -
24/12:30pm 26.4 E 21 25 1013.5 - 0.0 - - - - - - -
24/12:00pm 28.1 E 17 20 1013.7 S 0.0 Distant precip. Mostly cloudy 20 2 0.6 8 E
24/11:30am 27.3 E 16 20 1014.2 - 0.0 - - - - - - -
24/11:00am 26.8 ESE 21 27 1014.4 - 0.0 - - - - - - -
24/10:30am 28.1 ESE 17 19 1014.8 - 0.0 - - - - - - -
24/10:00am 28.7 ESE 16 20 1014.9 - 0.0 - - - - - - -
24/09:30am 28.2 ESE 19 22 1015.1 - 0.0 - - - - - - -
24/09:00am 27.9 E 18 21 1014.9 F 0.0 Distant precip. Partly cloudy 16 2 0.6 7 E
24/08:30am 27.7 E 19 22 1014.7 - 0.0 - - - - - - -
24/08:00am 27.3 E 19 21 1014.6 - 0.0 - - - - - - -
24/07:30am 27.0 ESE 18 22 1014.6 - 0.0 - - - - - - -
24/07:00am 27.3 ESE 19 22 1014.1 - 0.0 - - - - - - -
24/06:30am 26.8 ESE 20 23 1013.8 - 0.0 - - - - - - -
24/06:00am 26.7 ESE 19 23 1013.8 S 0.0 - - - - - - -
24/05:30am 26.6 ESE 19 23 1013.3 - 0.0 - - - - - - -
24/05:00am 26.6 ESE 20 23 1013.0 - 0.0 - - - - - - -
24/04:30am 26.7 ESE 19 21 1013.0 - 0.0 - - - - - - -
24/04:00am 26.7 ESE 20 22 1012.8 - 0.0 - - - - - - -
24/03:30am 26.7 ESE 20 23 1012.9 - 0.0 - - - - - - -
24/03:00am 26.7 ESE 21 23 1013.1 R 0.0 - - - - - - -
24/02:30am 26.7 ESE 21 24 1013.0 - 0.0 - - - - - - -
24/02:00am 26.6 ESE 20 23 1013.2 - 0.0 - - - - - - -
24/01:30am 26.6 ESE 20 25 1013.6 - 0.0 - - - - - - -
24/01:00am 26.7 ESE 21 24 1013.7 - 0.0 - - - - - - -
24/12:30am 26.8 ESE 20 24 1014.1 - 0.0 - - - - - - -
24/12:00am 26.8 ESE 20 23 1014.4 F 0.0 - - - - - - -
 
Date/Time
EST
Temp
°C
Wind Pressure Rain since
9am
mm
Weather Cloud Vis
km
Sea
Height
m
Swell
Dir  Spd
kts
Gust
kts
hPa Trend Height
m
Period
s
Dir
23/11:30pm 26.7 ESE 20 23 1014.6 - 0.0 - - - - - - -
23/11:00pm 26.6 ESE 20 23 1014.9 - 0.0 - - - - - - -
23/10:30pm 26.7 ESE 19 23 1014.9 - 0.0 - - - - - - -
23/10:00pm 26.7 ESE 19 22 1015.3 - 0.0 - - - - - - -
23/09:30pm 26.8 ESE 18 22 1015.5 - 0.0 - - - - - - -
23/09:00pm 26.6 ESE 20 23 1015.3 R 0.0 - - - - - - -
23/08:30pm 26.8 ESE 20 24 1015.2 - 0.0 - - - - - - -
23/08:00pm 26.8 ESE 20 23 1014.9 - 0.0 - - - - - - -
23/07:30pm 26.8 ESE 19 23 1014.5 - 0.0 - - - - - - -
23/07:00pm 26.8 ESE 19 22 1014.0 - 0.0 - - - - - - -
23/06:30pm 26.7 ESE 19 21 1013.7 - 0.0 - - - - - - -
23/06:00pm 26.7 ESE 18 22 1013.6 R 0.0 Distant precip. Mostly cloudy 20 2 1.5 8 SE
23/05:30pm 26.7 E 19 23 1013.4 - 0.0 - - - - - - -
23/05:00pm 26.5 ESE 20 23 1013.2 - 0.0 - - - - - - -
23/04:30pm 27.1 E 19 22 1013.1 - 0.0 - - - - - - -
23/04:00pm 27.3 ESE 19 22 1012.8 - 0.0 - - - - - - -
23/03:30pm 27.7 ESE 19 22 1012.5 - 0.0 - - - - - - -
23/03:00pm 28.1 ESE 19 22 1012.2 F 0.0 Haze Partly cloudy 20 2 1.5 7 SE
23/02:30pm 27.7 ESE 18 21 1012.5 - 0.0 - - - - - - -
23/02:00pm 28.7 E 17 20 1012.6 - 0.0 - - - - - - -
23/01:30pm 28.8 ESE 17 20 1012.9 - 0.0 - - - - - - -
23/01:00pm 28.8 ESE 18 20 1013.3 - 0.0 - - - - - - -
23/12:30pm 28.7 ESE 18 22 1013.7 - 0.0 - - - - - - -
23/12:00pm 28.8 ESE 17 21 1013.9 R 0.0 Haze Partly cloudy 18 2 1.5 7 SE
23/11:30am 28.3 ESE 19 22 1014.3 - 0.0 - - - - - - -
23/11:00am 28.0 ESE 20 23 1014.4 - 0.0 - - - - - - -
23/10:30am 28.7 ESE 19 22 1014.8 - 0.0 - - - - - - -
23/10:00am 28.3 ESE 21 24 1015.1 - 0.0 - - - - - - -
23/09:30am 27.9 ESE 20 22 1015.1 - 0.0 - - - - - - -
23/09:00am 27.2 ESE 20 23 1014.9 R 0.0 Distant precip. Mostly cloudy 15 2 1.8 7 SE
23/08:30am 27.8 ESE 19 22 1014.5 - 0.0 - - - - - - -
23/08:00am 27.5 ESE 20 23 1014.2 - 0.0 - - - - - - -
23/07:30am 26.8 ESE 21 24 1014.0 - 0.0 - - - - - - -
23/07:00am 26.6 ESE 22 25 1013.6 - 0.0 - - - - - - -
23/06:30am 26.6 ESE 21 25 1013.3 - 0.0 - - - - - - -
23/06:00am 26.8 ESE 21 24 1012.9 F 0.0 - - - - - - -
23/05:30am 26.8 ESE 21 25 1012.7 - 0.0 - - - - - - -
23/05:00am 26.8 ESE 21 24 1012.6 - 0.0 - - - - - - -
23/04:30am 26.7 ESE 20 24 1012.5 - 0.0 - - - - - - -
23/04:00am 26.7 ESE 21 24 1012.5 - 0.0 - - - - - - -
23/03:30am 26.6 ESE 20 23 1012.5 - 0.0 - - - - - - -
23/03:00am 26.6 ESE 20 24 1012.7 R 0.0 - - - - - - -

Other Formats:

Comma delimited format used in spreadsheet applications
http://www.bom.gov.au/fwo/IDQ60701/IDQ60701.94299.axf

JavaScript Object Notation format (JSON) in row-major order
http://www.bom.gov.au/fwo/IDQ60701/IDQ60701.94299.json